Airport View

Enter AWOS ICAO identifier for current METAR.

ex. KFNL

KY23 290305Z AUTO 27005KT 10SM CLR 08/07 A2984 RMK AO2 T00810070

29 Sep 2020 03:05

Frequency: 119.05

Phone: 715-924-1836

Other Area AWOS: KRPD - KUBE - KLUM - KEAU

KEAU 290121Z 2901/2924 30007KT P6SM SCT035 BKN090 TEMPO 2905/2909 OVC020 FM290900 30006KT P6SM SCT009 OVC015 FM291600 25010KT P6SM SCT022 BKN023 FM291900 25011KT P6SM SCT023 BKN040